createdAt,value
2023-03-20T00:00:40.489Z,89.16
2023-03-20T00:03:43.311Z,90.20
2023-03-20T00:06:46.005Z,90.46
2023-03-20T00:09:49.387Z,90.47
2023-03-20T00:12:52.170Z,90.64
2023-03-20T00:15:56.402Z,91.01
2023-03-20T00:18:59.483Z,90.77
2023-03-20T00:22:02.389Z,90.60
2023-03-20T00:25:05.771Z,90.53
2023-03-20T00:28:32.533Z,90.86
2023-03-20T00:31:38.136Z,90.61
2023-03-20T00:34:40.988Z,90.63
2023-03-20T00:37:43.716Z,90.38
2023-03-20T00:40:46.504Z,91.07
2023-03-20T00:43:52.683Z,90.32
2023-03-20T00:46:59.202Z,89.40
2023-03-20T00:50:03.011Z,90.06
2023-03-20T00:53:06.047Z,88.96
2023-03-20T00:56:29.809Z,89.16
2023-03-20T00:59:37.141Z,89.17
2023-03-20T01:02:41.237Z,89.71
2023-03-20T01:05:44.926Z,89.70
2023-03-20T01:08:48.807Z,88.86
2023-03-20T01:11:53.988Z,89.27
2023-03-20T01:14:58.666Z,89.72
2023-03-20T01:18:02.667Z,90.01
2023-03-20T01:21:05.846Z,90.36
2023-03-20T01:24:09.150Z,90.97
2023-03-20T01:27:15.481Z,91.49
2023-03-20T01:30:22.025Z,91.75
2023-03-20T01:33:26.613Z,91.10
2023-03-20T01:36:29.466Z,90.66
2023-03-20T01:39:35.032Z,90.65
2023-03-20T01:42:38.315Z,90.24
2023-03-20T01:45:48.302Z,90.02
2023-03-20T01:49:05.609Z,90.27
2023-03-20T01:52:08.442Z,90.46
2023-03-20T01:55:11.336Z,90.65
2023-03-20T01:58:18.595Z,91.22
2023-03-20T02:01:21.583Z,91.05
2023-03-20T02:04:30.223Z,90.76
2023-03-20T02:07:34.783Z,90.75
2023-03-20T02:10:37.822Z,91.06
2023-03-20T02:13:41.459Z,92.06
2023-03-20T02:16:44.333Z,92.06
2023-03-20T02:19:59.429Z,91.77
2023-03-20T02:23:25.572Z,90.80
2023-03-20T02:26:44.173Z,89.84
2023-03-20T02:30:14.760Z,89.99
2023-03-20T02:33:51.102Z,89.17
2023-03-20T02:37:32.978Z,89.15
2023-03-20T02:40:46.011Z,89.34
2023-03-20T02:43:57.100Z,89.24
2023-03-20T02:47:05.022Z,87.99
2023-03-20T02:50:17.398Z,87.20
2023-03-20T02:53:32.567Z,87.59
2023-03-20T02:56:43.425Z,88.27
2023-03-20T02:59:54.108Z,88.44
2023-03-20T03:03:06.453Z,88.89
2023-03-20T03:06:15.932Z,88.67
2023-03-20T03:09:23.054Z,89.21
2023-03-20T03:12:32.824Z,89.31
2023-03-20T03:15:40.033Z,89.22
2023-03-20T03:18:44.615Z,89.15
2023-03-20T03:21:48.834Z,88.80
2023-03-20T03:24:53.272Z,88.62
2023-03-20T03:28:04.377Z,88.73
2023-03-20T03:31:09.689Z,88.37
2023-03-20T03:34:16.426Z,88.55
2023-03-20T03:37:27.767Z,88.41
2023-03-20T03:40:37.178Z,87.85
2023-03-20T03:43:48.844Z,87.55
2023-03-20T03:46:55.312Z,87.91
2023-03-20T03:50:03.157Z,87.24
2023-03-20T03:53:11.450Z,87.58
2023-03-20T03:56:17.322Z,87.67
2023-03-20T03:59:27.234Z,87.35
2023-03-20T04:02:30.773Z,86.41
2023-03-20T04:05:37.547Z,87.34
2023-03-20T04:08:41.481Z,87.82
2023-03-20T04:11:48.731Z,88.04
2023-03-20T04:14:52.735Z,88.68
2023-03-20T04:17:56.018Z,88.57
2023-03-20T04:20:58.852Z,88.77
2023-03-20T04:24:04.292Z,88.88
2023-03-20T04:27:07.022Z,89.04
2023-03-20T04:30:13.096Z,89.20
2023-03-20T04:33:16.403Z,89.40
2023-03-20T04:36:19.386Z,89.58
2023-03-20T04:39:22.405Z,89.37
2023-03-20T04:42:25.266Z,89.06
2023-03-20T04:45:29.329Z,88.73
2023-03-20T04:48:32.147Z,88.14
2023-03-20T04:51:34.965Z,87.55
2023-03-20T04:54:37.735Z,88.00
2023-03-20T04:57:40.955Z,87.67
2023-03-20T05:00:45.318Z,87.71
2023-03-20T05:03:48.015Z,87.98
2023-03-20T05:06:50.803Z,88.44
2023-03-20T05:09:53.781Z,88.83
2023-03-20T05:12:56.478Z,88.62
2023-03-20T05:16:01.188Z,88.89
2023-03-20T05:19:03.904Z,89.05
2023-03-20T05:22:08.931Z,89.45
2023-03-20T05:25:11.724Z,89.36
2023-03-20T05:28:14.510Z,89.54
2023-03-20T05:31:18.684Z,89.94
2023-03-20T05:34:21.564Z,89.84
2023-03-20T05:37:24.289Z,89.15
2023-03-20T05:40:26.998Z,89.43
2023-03-20T05:43:29.982Z,89.48
2023-03-20T05:46:34.090Z,89.34
2023-03-20T05:49:36.994Z,89.75
2023-03-20T05:52:39.739Z,89.45
2023-03-20T05:55:44.667Z,89.71
2023-03-20T05:58:47.505Z,89.98
2023-03-20T06:01:51.635Z,89.57
2023-03-20T06:04:54.465Z,89.77
2023-03-20T06:07:57.297Z,89.69
2023-03-20T06:10:59.966Z,90.42
2023-03-20T06:14:03.101Z,90.00
2023-03-20T06:17:07.322Z,90.34
2023-03-20T06:20:11.457Z,89.42
2023-03-20T06:23:14.216Z,89.08
2023-03-20T06:26:17.120Z,88.88
2023-03-20T06:29:19.992Z,89.25
2023-03-20T06:32:24.290Z,89.13
2023-03-20T06:35:31.145Z,88.34
2023-03-20T06:38:34.293Z,87.85
2023-03-20T06:41:37.155Z,87.73
2023-03-20T06:44:40.311Z,87.74
2023-03-20T06:47:44.320Z,88.03
2023-03-20T06:50:47.454Z,87.62
2023-03-20T06:53:50.245Z,85.82
2023-03-20T06:56:53.390Z,84.58
2023-03-20T06:59:56.212Z,83.83
2023-03-20T07:03:02.201Z,84.13
2023-03-20T07:06:05.556Z,81.84
2023-03-20T07:09:08.251Z,80.85
2023-03-20T07:12:14.486Z,80.33
2023-03-20T07:15:17.500Z,77.16
2023-03-20T07:18:22.321Z,77.89
2023-03-20T07:21:25.263Z,75.59
2023-03-20T07:24:28.130Z,76.75
2023-03-20T07:27:31.128Z,77.95
2023-03-20T07:30:34.149Z,78.61
2023-03-20T07:33:38.215Z,78.20
2023-03-20T07:36:41.902Z,77.73
2023-03-20T07:39:44.676Z,78.64
2023-03-20T07:42:47.656Z,79.59
2023-03-20T07:45:50.620Z,78.59
2023-03-20T07:48:56.631Z,77.63
2023-03-20T07:51:59.541Z,77.79
2023-03-20T07:55:02.506Z,77.50
2023-03-20T07:58:05.536Z,77.89
2023-03-20T08:01:08.329Z,75.37
2023-03-20T08:04:12.601Z,75.80
2023-03-20T08:07:15.579Z,75.07
2023-03-20T08:10:18.653Z,74.14
2023-03-20T08:13:21.442Z,74.49
2023-03-20T08:16:24.421Z,74.44
2023-03-20T08:19:28.836Z,75.34
2023-03-20T08:22:31.645Z,74.14
2023-03-20T08:25:35.146Z,73.90
2023-03-20T08:28:47.466Z,73.88
2023-03-20T08:31:50.871Z,73.58
2023-03-20T08:34:55.756Z,73.79
2023-03-20T08:37:58.603Z,73.89
2023-03-20T08:41:01.304Z,73.61
2023-03-20T08:44:04.094Z,72.35
2023-03-20T08:47:07.667Z,72.10
2023-03-20T08:50:12.995Z,71.69
2023-03-20T08:53:16.956Z,72.11
2023-03-20T08:56:19.873Z,71.01
2023-03-20T08:59:22.961Z,71.13
2023-03-20T09:02:25.788Z,69.29
2023-03-20T09:05:30.747Z,66.53
2023-03-20T09:08:34.610Z,67.30
2023-03-20T09:11:38.196Z,66.92
2023-03-20T09:14:41.854Z,66.07
2023-03-20T09:17:44.568Z,67.62
2023-03-20T09:20:49.359Z,66.81
2023-03-20T09:23:52.244Z,66.26
2023-03-20T09:26:54.997Z,66.60
2023-03-20T09:29:58.093Z,64.67
2023-03-20T09:33:00.860Z,64.30
2023-03-20T09:36:05.540Z,65.05
2023-03-20T09:39:08.729Z,66.63
2023-03-20T09:42:22.481Z,65.80
2023-03-20T09:45:35.639Z,65.07
2023-03-20T09:48:46.375Z,63.29
2023-03-20T09:51:54.539Z,63.27
2023-03-20T09:55:02.042Z,62.15
2023-03-20T09:58:11.798Z,62.08
2023-03-20T10:01:16.743Z,63.38
2023-03-20T10:04:19.958Z,60.93
2023-03-20T10:07:25.983Z,63.80
2023-03-20T10:10:35.376Z,65.69
2023-03-20T10:13:55.473Z,66.18
2023-03-20T10:17:15.420Z,67.45
2023-03-20T10:20:26.775Z,68.04
2023-03-20T10:23:37.278Z,68.34
2023-03-20T10:26:40.932Z,69.02
2023-03-20T10:29:52.654Z,68.88
2023-03-20T10:33:07.663Z,70.31
2023-03-20T10:36:24.534Z,68.91
2023-03-20T10:39:39.793Z,68.26
2023-03-20T10:42:45.737Z,68.87
2023-03-20T10:45:51.762Z,69.24
2023-03-20T10:49:01.229Z,70.06
2023-03-20T10:52:08.331Z,69.46
2023-03-20T10:55:17.360Z,70.69
2023-03-20T10:58:23.600Z,71.43
2023-03-20T11:01:26.594Z,70.15
2023-03-20T11:04:29.344Z,69.35
2023-03-20T11:07:35.072Z,69.80
2023-03-20T11:10:40.806Z,69.84
2023-03-20T11:13:45.364Z,69.84
2023-03-20T11:16:53.256Z,67.86
2023-03-20T11:20:04.008Z,67.75
2023-03-20T11:23:08.918Z,68.20
2023-03-20T11:26:16.914Z,68.06
2023-03-20T11:29:27.900Z,69.01
2023-03-20T11:32:32.882Z,67.79
2023-03-20T11:35:36.115Z,68.39
2023-03-20T11:38:45.801Z,68.06
2023-03-20T11:41:53.096Z,68.63
2023-03-20T11:45:01.646Z,68.64
2023-03-20T11:48:05.997Z,68.58
2023-03-20T11:51:11.164Z,67.82
2023-03-20T11:54:18.031Z,65.74
2023-03-20T11:57:33.054Z,65.11
2023-03-20T12:00:39.787Z,64.45
2023-03-20T12:03:46.710Z,63.86
2023-03-20T12:06:54.626Z,62.44
2023-03-20T12:09:59.638Z,61.03
2023-03-20T12:13:10.794Z,59.94
2023-03-20T12:16:16.761Z,61.56
2023-03-20T12:19:24.286Z,62.94
2023-03-20T12:22:29.686Z,62.43
2023-03-20T12:25:38.417Z,59.85
2023-03-20T12:28:51.336Z,60.72
2023-03-20T12:31:59.333Z,62.04
2023-03-20T12:35:07.785Z,60.60
2023-03-20T12:38:24.341Z,61.26
2023-03-20T12:41:31.120Z,60.12
2023-03-20T12:44:41.924Z,61.85
2023-03-20T12:48:16.877Z,61.95
2023-03-20T12:51:28.923Z,62.25
2023-03-20T12:54:50.230Z,62.82
2023-03-20T12:58:05.398Z,63.54
2023-03-20T13:01:14.139Z,62.36
2023-03-20T13:04:42.219Z,62.53
2023-03-20T13:08:03.476Z,58.96
2023-03-20T13:11:14.861Z,59.09
2023-03-20T13:14:25.650Z,58.70
2023-03-20T13:17:36.586Z,59.54
2023-03-20T13:20:51.345Z,58.16
2023-03-20T13:24:06.116Z,58.95
2023-03-20T13:27:23.124Z,58.85
2023-03-20T13:30:31.186Z,58.63
2023-03-20T13:33:47.682Z,57.11
2023-03-20T13:37:16.129Z,56.33
2023-03-20T13:40:28.584Z,57.17
2023-03-20T13:43:36.145Z,55.37
2023-03-20T13:46:42.580Z,53.78
2023-03-20T13:49:53.661Z,53.51
2023-03-20T13:53:02.748Z,54.38
2023-03-20T13:56:13.453Z,54.83
2023-03-20T13:59:35.630Z,55.71
2023-03-20T14:02:53.023Z,56.71
2023-03-20T14:05:57.412Z,58.13
2023-03-20T14:09:00.971Z,57.41
2023-03-20T14:12:07.514Z,56.60
2023-03-20T14:15:13.395Z,57.89
2023-03-20T14:18:18.597Z,57.77
2023-03-20T14:21:25.433Z,57.40
2023-03-20T14:24:29.191Z,57.84
2023-03-20T14:27:44.578Z,57.31
2023-03-20T14:30:49.032Z,55.24
2023-03-20T14:34:00.493Z,56.64
2023-03-20T14:37:06.490Z,56.83
2023-03-20T14:40:17.861Z,54.68
2023-03-20T14:43:39.289Z,53.38
2023-03-20T14:46:52.573Z,52.55
2023-03-20T14:50:03.582Z,51.42
2023-03-20T14:53:17.182Z,52.64
2023-03-20T14:56:28.941Z,53.77
2023-03-20T14:59:33.512Z,54.35
2023-03-20T15:02:37.376Z,53.83
2023-03-20T15:05:41.160Z,54.44
2023-03-20T15:08:48.303Z,56.32
2023-03-20T15:11:52.624Z,56.66
2023-03-20T15:14:59.155Z,55.11
2023-03-20T15:18:08.499Z,56.83
2023-03-20T15:21:15.953Z,57.55
2023-03-20T15:24:23.334Z,57.98
2023-03-20T15:27:29.623Z,57.20
2023-03-20T15:30:34.969Z,57.46
2023-03-20T15:33:42.753Z,57.79
2023-03-20T15:36:45.533Z,59.78
2023-03-20T15:39:51.967Z,57.66
2023-03-20T15:42:55.392Z,59.10
2023-03-20T15:46:18.422Z,60.10
2023-03-20T15:49:23.235Z,59.29
2023-03-20T15:52:32.220Z,59.99
2023-03-20T15:55:36.570Z,61.14
2023-03-20T15:58:39.919Z,59.12
2023-03-20T16:01:42.969Z,58.22
2023-03-20T16:04:49.007Z,58.65
2023-03-20T16:07:51.621Z,57.01
2023-03-20T16:10:59.407Z,57.86
2023-03-20T16:14:02.414Z,57.15
2023-03-20T16:17:06.166Z,56.22
2023-03-20T16:20:14.400Z,56.50
2023-03-20T16:23:28.298Z,57.58
2023-03-20T16:26:32.495Z,56.58
2023-03-20T16:29:36.114Z,56.69
2023-03-20T16:32:40.372Z,56.63
2023-03-20T16:35:45.999Z,56.76
2023-03-20T16:38:57.442Z,57.34
2023-03-20T16:42:12.397Z,57.81
2023-03-20T16:45:25.083Z,58.65
2023-03-20T16:48:32.426Z,60.26
2023-03-20T16:51:35.184Z,61.25
2023-03-20T16:54:38.049Z,61.91
2023-03-20T16:57:43.128Z,62.62
2023-03-20T17:00:51.652Z,62.61
2023-03-20T17:03:56.724Z,62.67
2023-03-20T17:07:01.578Z,61.84
2023-03-20T17:10:18.439Z,62.85
2023-03-20T17:13:22.440Z,63.33
2023-03-20T17:16:26.059Z,63.21
2023-03-20T17:19:28.694Z,64.24
2023-03-20T17:22:33.435Z,64.39
2023-03-20T17:25:36.085Z,64.19
2023-03-20T17:28:41.701Z,64.48
2023-03-20T17:31:44.359Z,64.64
2023-03-20T17:34:47.735Z,65.20
2023-03-20T17:37:50.468Z,65.50
2023-03-20T17:40:53.677Z,65.90
2023-03-20T17:43:58.038Z,65.75
2023-03-20T17:47:02.302Z,66.10
2023-03-20T17:50:05.761Z,67.12
2023-03-20T17:53:13.459Z,66.44
2023-03-20T17:56:17.275Z,66.42
2023-03-20T17:59:21.220Z,66.11
2023-03-20T18:02:24.056Z,66.46
2023-03-20T18:05:28.600Z,66.86
2023-03-20T18:08:31.590Z,66.71
2023-03-20T18:11:34.508Z,66.83
2023-03-20T18:14:39.304Z,66.87
2023-03-20T18:17:41.913Z,67.02
2023-03-20T18:20:45.532Z,67.53
2023-03-20T18:23:48.169Z,67.06
2023-03-20T18:26:51.152Z,67.35
2023-03-20T18:29:55.206Z,66.90
2023-03-20T18:32:57.883Z,67.24
2023-03-20T18:36:00.755Z,67.77
2023-03-20T18:39:04.856Z,67.96
2023-03-20T18:42:07.944Z,68.21
2023-03-20T18:45:12.976Z,67.91
2023-03-20T18:48:16.058Z,68.18
2023-03-20T18:51:20.308Z,68.33
2023-03-20T18:54:22.979Z,67.98
2023-03-20T18:57:26.083Z,67.48
2023-03-20T19:00:33.799Z,67.52
2023-03-20T19:03:39.289Z,67.46
2023-03-20T19:06:41.950Z,67.76
2023-03-20T19:09:44.689Z,68.17
2023-03-20T19:12:47.374Z,68.06
2023-03-20T19:15:51.619Z,68.65
2023-03-20T19:18:55.817Z,67.95
2023-03-20T19:21:58.453Z,68.33
2023-03-20T19:25:01.048Z,67.90
2023-03-20T19:28:05.269Z,67.71
2023-03-20T19:31:10.771Z,67.48
2023-03-20T19:34:44.384Z,67.93
2023-03-20T19:37:36.027Z,69.35
2023-03-20T19:40:42.972Z,69.89
2023-03-20T19:43:52.481Z,70.01
2023-03-20T19:46:57.730Z,69.72
2023-03-20T19:50:00.348Z,70.99
2023-03-20T19:53:05.812Z,71.14
2023-03-20T19:56:08.768Z,71.17
2023-03-20T19:59:12.622Z,71.62
2023-03-20T20:02:18.287Z,70.86
2023-03-20T20:05:26.239Z,72.56
2023-03-20T20:08:44.831Z,72.89
2023-03-20T20:11:50.361Z,72.83
2023-03-20T20:14:53.048Z,73.05
2023-03-20T20:17:57.030Z,73.01
2023-03-20T20:22:00.015Z,73.24
2023-03-20T20:24:22.636Z,72.95
2023-03-20T20:27:25.439Z,72.73
2023-03-20T20:30:28.035Z,72.54
2023-03-20T20:33:34.405Z,72.46
2023-03-20T20:40:00.282Z,73.31
2023-03-20T20:43:09.721Z,73.42
2023-03-20T20:46:13.227Z,73.35
2023-03-20T20:49:19.871Z,74.08
2023-03-20T20:52:23.042Z,74.10
2023-03-20T20:55:26.185Z,73.48
2023-03-20T20:58:28.837Z,74.54
2023-03-20T21:01:31.573Z,73.93
2023-03-20T21:04:35.694Z,73.30
2023-03-20T21:07:38.604Z,72.77
2023-03-20T21:10:41.280Z,73.36
2023-03-20T21:13:43.926Z,73.34
2023-03-20T21:16:46.619Z,73.04
2023-03-20T21:19:51.056Z,74.47
2023-03-20T21:22:53.733Z,74.41
2023-03-20T21:25:56.343Z,74.56
2023-03-20T21:28:58.989Z,74.34
2023-03-20T21:32:01.659Z,74.94
2023-03-20T21:35:09.220Z,74.73
2023-03-20T21:41:34.940Z,76.67
2023-03-20T21:48:39.410Z,76.02
2023-03-20T21:52:30.518Z,76.68
2023-03-20T21:58:48.821Z,77.25
2023-03-20T22:09:20.185Z,77.63
2023-03-20T22:12:30.224Z,77.70
2023-03-20T22:15:46.739Z,77.36
2023-03-20T22:19:45.980Z,77.29
2023-03-20T22:29:32.742Z,78.37
2023-03-20T22:33:03.386Z,78.71
2023-03-20T22:39:40.873Z,78.90
2023-03-20T22:46:03.148Z,78.63
2023-03-20T22:49:08.637Z,78.47
2023-03-20T22:52:24.891Z,79.25
2023-03-20T22:55:32.219Z,79.09
2023-03-20T22:58:36.315Z,79.15
2023-03-20T23:01:39.090Z,79.86
2023-03-20T23:04:42.039Z,79.52
2023-03-20T23:07:44.869Z,78.66
2023-03-20T23:10:49.669Z,78.54
2023-03-20T23:13:54.249Z,78.05
2023-03-20T23:16:57.092Z,78.81
2023-03-20T23:20:10.959Z,78.39
2023-03-20T23:23:14.912Z,78.97
2023-03-20T23:26:20.978Z,79.22
2023-03-20T23:29:25.233Z,78.78
2023-03-20T23:32:28.311Z,78.65
2023-03-20T23:35:31.083Z,79.01
2023-03-20T23:38:34.052Z,79.73
2023-03-20T23:45:13.179Z,80.21
2023-03-20T23:48:22.344Z,79.71
2023-03-20T23:51:25.151Z,79.49
2023-03-20T23:54:27.944Z,79.88
2023-03-20T23:57:30.722Z,79.75
